createdAt,value
2022-09-25T00:02:00.022Z,6.10
2022-09-25T00:04:32.114Z,5.90
2022-09-25T00:07:04.090Z,5.40
2022-09-25T00:09:35.634Z,4.90
2022-09-25T00:12:07.557Z,6.30
2022-09-25T00:14:38.964Z,6.30
2022-09-25T00:17:10.869Z,5.90
2022-09-25T00:22:25.106Z,5.50
2022-09-25T00:24:56.657Z,5.40
2022-09-25T00:27:28.334Z,5.40
2022-09-25T00:30:00.622Z,6.10
2022-09-25T00:32:32.165Z,5.50
2022-09-25T00:35:03.708Z,6.30
2022-09-25T00:37:36.025Z,5.10
2022-09-25T00:40:08.376Z,5.90
2022-09-25T00:42:40.514Z,5.40
2022-09-25T00:45:16.449Z,5.90
2022-09-25T00:47:57.982Z,5.40
2022-09-25T00:50:34.032Z,5.80
2022-09-25T00:53:08.580Z,4.80
2022-09-25T00:55:40.040Z,4.70
2022-09-25T00:58:11.918Z,4.70
2022-09-25T01:03:13.393Z,5.10
2022-09-25T01:05:45.146Z,4.70
2022-09-25T01:10:47.417Z,5.00
2022-09-25T01:13:19.531Z,5.10
2022-09-25T01:15:53.480Z,5.10
2022-09-25T01:18:32.342Z,4.60
2022-09-25T01:21:14.458Z,4.60
2022-09-25T01:24:10.682Z,5.30
2022-09-25T01:26:56.289Z,4.60
2022-09-25T01:29:28.905Z,4.50
2022-09-25T01:32:04.063Z,4.80
2022-09-25T01:34:40.060Z,4.90
2022-09-25T01:37:15.654Z,4.40
2022-09-25T01:39:48.762Z,5.50
2022-09-25T01:42:22.352Z,4.80
2022-09-25T01:44:56.718Z,5.30
2022-09-25T01:47:30.295Z,4.90
2022-09-25T01:50:03.284Z,4.70
2022-09-25T01:52:43.378Z,5.20
2022-09-25T01:55:17.245Z,5.20
2022-09-25T01:57:50.251Z,5.30
2022-09-25T02:00:23.068Z,4.90
2022-09-25T02:02:56.278Z,5.60
2022-09-25T02:05:31.220Z,6.10
2022-09-25T02:08:04.236Z,5.00
2022-09-25T02:10:38.048Z,5.10
2022-09-25T02:13:12.918Z,5.40
2022-09-25T02:15:46.000Z,5.70
2022-09-25T02:18:35.890Z,5.60
2022-09-25T02:21:13.723Z,6.00
2022-09-25T02:23:51.159Z,6.20
2022-09-25T02:26:26.208Z,5.80
2022-09-25T02:28:57.747Z,5.50
2022-09-25T02:31:31.279Z,5.00
2022-09-25T02:34:03.881Z,5.80
2022-09-25T02:36:35.564Z,5.10
2022-09-25T02:39:07.504Z,6.30
2022-09-25T02:41:54.394Z,5.50
2022-09-25T02:44:32.934Z,5.20
2022-09-25T02:47:13.169Z,5.20
2022-09-25T02:49:49.296Z,4.80
2022-09-25T02:52:21.571Z,5.60
2022-09-25T02:54:55.515Z,5.30
2022-09-25T02:57:29.330Z,5.50
2022-09-25T03:00:05.642Z,5.40
2022-09-25T03:02:37.242Z,5.40
2022-09-25T03:05:11.750Z,5.80
2022-09-25T03:08:01.145Z,5.70
2022-09-25T03:10:32.915Z,5.90
2022-09-25T03:15:48.095Z,6.30
2022-09-25T03:18:19.606Z,5.10
2022-09-25T03:20:51.165Z,6.70
2022-09-25T03:23:22.987Z,6.10
2022-09-25T03:25:56.142Z,4.90
2022-09-25T03:28:27.775Z,6.00
2022-09-25T03:31:06.403Z,5.80
2022-09-25T03:33:39.070Z,4.90
2022-09-25T03:36:13.194Z,4.90
2022-09-25T03:38:46.081Z,6.00
2022-09-25T03:41:20.337Z,5.40
2022-09-25T03:43:52.818Z,5.10
2022-09-25T03:46:25.942Z,5.70
2022-09-25T03:48:57.618Z,5.70
2022-09-25T03:51:29.843Z,5.10
2022-09-25T03:54:01.322Z,5.80
2022-09-25T03:56:33.185Z,6.20
2022-09-25T03:59:04.810Z,6.00
2022-09-25T04:01:37.451Z,5.60
2022-09-25T04:04:09.586Z,5.80
2022-09-25T04:09:10.900Z,6.00
2022-09-25T04:11:44.169Z,5.50
2022-09-25T04:14:16.263Z,6.30
2022-09-25T04:16:48.110Z,5.90
2022-09-25T04:19:19.753Z,5.00
2022-09-25T04:21:51.258Z,5.60
2022-09-25T04:24:54.739Z,5.50
2022-09-25T04:27:27.050Z,6.20
2022-09-25T04:29:58.833Z,5.90
2022-09-25T04:32:59.535Z,6.10
2022-09-25T04:35:31.205Z,5.60
2022-09-25T04:38:02.671Z,5.50
2022-09-25T04:40:34.322Z,5.70
2022-09-25T04:43:06.676Z,5.70
2022-09-25T04:45:38.698Z,6.70
2022-09-25T04:48:10.341Z,6.40
2022-09-25T04:50:42.657Z,5.60
2022-09-25T04:53:14.384Z,5.20
2022-09-25T04:58:17.340Z,5.90
2022-09-25T05:03:19.075Z,5.90
2022-09-25T05:08:20.444Z,6.70
2022-09-25T05:10:52.066Z,5.70
2022-09-25T05:13:24.071Z,7.40
2022-09-25T05:15:56.505Z,6.20
2022-09-25T05:18:28.310Z,7.40
2022-09-25T05:21:00.035Z,6.80
2022-09-25T05:23:31.592Z,6.30
2022-09-25T05:26:03.145Z,5.80
2022-09-25T05:28:34.943Z,6.50
2022-09-25T05:33:37.552Z,6.60
2022-09-25T05:36:10.043Z,5.80
2022-09-25T05:38:42.396Z,5.30
2022-09-25T05:41:14.232Z,5.80
2022-09-25T05:46:16.490Z,5.40
2022-09-25T05:48:48.471Z,4.90
2022-09-25T05:51:20.079Z,5.60
2022-09-25T05:53:51.915Z,5.50
2022-09-25T05:56:25.071Z,5.20
2022-09-25T05:58:58.974Z,4.80
2022-09-25T06:01:31.371Z,4.90
2022-09-25T06:04:03.153Z,4.30
2022-09-25T06:06:35.184Z,4.80
2022-09-25T06:09:06.937Z,4.30
2022-09-25T06:11:41.074Z,4.40
2022-09-25T06:14:13.660Z,5.20
2022-09-25T06:16:45.591Z,4.00
2022-09-25T06:21:48.019Z,4.10
2022-09-25T06:24:19.584Z,4.50
2022-09-25T06:26:51.274Z,4.40
2022-09-25T06:29:22.690Z,4.70
2022-09-25T06:31:54.755Z,4.30
2022-09-25T06:34:28.370Z,3.70
2022-09-25T06:36:59.785Z,3.90
2022-09-25T06:39:33.470Z,4.30
2022-09-25T06:42:05.134Z,3.70
2022-09-25T06:44:36.760Z,3.90
2022-09-25T06:47:14.921Z,3.50
2022-09-25T06:49:50.274Z,3.20
2022-09-25T06:52:21.794Z,3.40
2022-09-25T06:54:53.235Z,3.40
2022-09-25T06:57:24.574Z,4.00
2022-09-25T06:59:56.070Z,4.40
2022-09-25T07:02:45.201Z,4.00
2022-09-25T07:05:18.979Z,3.80
2022-09-25T07:07:50.372Z,4.30
2022-09-25T07:10:22.144Z,3.90
2022-09-25T07:15:24.171Z,3.90
2022-09-25T07:17:55.683Z,3.50
2022-09-25T07:20:27.180Z,3.30
2022-09-25T07:23:04.233Z,3.40
2022-09-25T07:25:35.631Z,3.70
2022-09-25T07:28:07.677Z,3.30
2022-09-25T07:30:39.037Z,2.90
2022-09-25T07:33:10.547Z,3.30
2022-09-25T07:35:41.956Z,3.20
2022-09-25T07:38:13.844Z,3.50
2022-09-25T07:40:46.224Z,2.90
2022-09-25T07:43:17.729Z,2.50
2022-09-25T07:45:53.873Z,2.60
2022-09-25T07:48:25.323Z,3.40
2022-09-25T07:50:56.925Z,2.80
2022-09-25T07:53:28.431Z,2.80
2022-09-25T07:56:06.503Z,2.90
2022-09-25T07:58:39.116Z,2.80
2022-09-25T08:03:41.249Z,2.40
2022-09-25T08:08:43.803Z,2.80
2022-09-25T08:11:17.112Z,2.90
2022-09-25T08:13:49.617Z,2.60
2022-09-25T08:16:22.962Z,2.70
2022-09-25T08:18:54.542Z,3.10
2022-09-25T08:21:25.944Z,2.80
2022-09-25T08:23:57.299Z,2.90
2022-09-25T08:26:30.539Z,2.90
2022-09-25T08:29:02.126Z,2.90
2022-09-25T08:31:34.944Z,2.60
2022-09-25T08:34:28.461Z,3.00
2022-09-25T08:37:00.330Z,2.80
2022-09-25T08:42:02.129Z,3.40
2022-09-25T08:44:35.575Z,3.30
2022-09-25T08:47:26.109Z,2.80
2022-09-25T08:50:02.270Z,2.90
2022-09-25T08:52:36.315Z,3.00
2022-09-25T08:55:13.805Z,3.10
2022-09-25T08:57:45.765Z,2.60
2022-09-25T09:00:21.331Z,2.70
2022-09-25T09:02:55.615Z,2.60
2022-09-25T09:05:28.912Z,3.00
2022-09-25T09:08:01.984Z,2.90
2022-09-25T09:10:37.586Z,2.80
2022-09-25T09:13:16.761Z,2.70
2022-09-25T09:15:51.209Z,2.50
2022-09-25T09:18:25.135Z,2.00
2022-09-25T09:20:57.600Z,2.20
2022-09-25T09:23:32.007Z,2.10
2022-09-25T09:26:06.007Z,2.20
2022-09-25T09:28:57.908Z,1.90
2022-09-25T09:31:31.398Z,1.90
2022-09-25T09:34:10.351Z,2.40
2022-09-25T09:36:44.932Z,2.10
2022-09-25T09:39:21.632Z,2.20
2022-09-25T09:41:59.162Z,2.90
2022-09-25T09:44:38.195Z,1.80
2022-09-25T09:47:20.160Z,2.80
2022-09-25T09:49:53.712Z,2.40
2022-09-25T09:52:26.551Z,2.20
2022-09-25T09:55:02.718Z,2.50
2022-09-25T09:57:46.982Z,1.80
2022-09-25T10:00:20.281Z,1.90
2022-09-25T10:02:54.115Z,2.20
2022-09-25T10:05:27.233Z,2.50
2022-09-25T10:07:59.481Z,1.90
2022-09-25T10:13:07.011Z,2.20
2022-09-25T10:15:41.200Z,1.80
2022-09-25T10:18:12.838Z,1.70
2022-09-25T10:23:23.478Z,1.80
2022-09-25T10:25:56.261Z,1.90
2022-09-25T10:28:32.414Z,2.10
2022-09-25T10:31:03.965Z,2.00
2022-09-25T10:36:05.317Z,2.00
2022-09-25T10:38:42.245Z,1.90
2022-09-25T10:41:14.358Z,2.50
2022-09-25T10:43:55.932Z,2.80
2022-09-25T10:46:49.644Z,3.00
2022-09-25T10:49:40.614Z,3.50
2022-09-25T10:52:12.738Z,2.70
2022-09-25T10:54:45.957Z,3.10
2022-09-25T10:57:28.826Z,3.10
2022-09-25T11:00:00.239Z,3.90
2022-09-25T11:02:38.277Z,3.70
2022-09-25T11:05:16.867Z,2.60
2022-09-25T11:07:52.567Z,3.20
2022-09-25T11:10:26.355Z,2.60
2022-09-25T11:12:58.044Z,2.70
2022-09-25T11:15:30.408Z,2.40
2022-09-25T11:18:02.649Z,2.30
2022-09-25T11:20:34.781Z,2.20
2022-09-25T11:23:28.193Z,2.20
2022-09-25T11:26:06.212Z,2.20
2022-09-25T11:28:39.176Z,2.30
2022-09-25T11:31:19.352Z,2.10
2022-09-25T11:33:52.073Z,2.30
2022-09-25T11:36:25.850Z,1.80
2022-09-25T11:39:15.895Z,1.70
2022-09-25T11:41:49.888Z,1.90
2022-09-25T11:44:28.148Z,1.80
2022-09-25T11:47:04.952Z,2.30
2022-09-25T11:49:38.316Z,2.30
2022-09-25T11:52:28.327Z,1.80
2022-09-25T11:55:43.448Z,2.40
2022-09-25T11:58:30.523Z,2.40
2022-09-25T12:01:05.390Z,2.00
2022-09-25T12:03:43.551Z,2.10
2022-09-25T12:06:27.131Z,2.50
2022-09-25T12:09:07.987Z,3.20
2022-09-25T12:11:45.963Z,2.80
2022-09-25T12:14:21.939Z,2.60
2022-09-25T12:16:58.323Z,3.00
2022-09-25T12:19:35.901Z,2.80
2022-09-25T12:22:10.973Z,2.90
2022-09-25T12:24:58.715Z,2.20
2022-09-25T12:27:43.230Z,2.20
2022-09-25T12:30:20.000Z,1.90
2022-09-25T12:33:05.807Z,2.80
2022-09-25T12:35:41.876Z,3.00
2022-09-25T12:38:19.155Z,2.40
2022-09-25T12:40:53.047Z,2.60
2022-09-25T12:43:26.397Z,2.30
2022-09-25T12:46:00.821Z,2.80
2022-09-25T12:48:37.573Z,3.20
2022-09-25T12:51:11.815Z,2.70
2022-09-25T12:53:45.771Z,2.50
2022-09-25T12:56:18.335Z,2.60
2022-09-25T12:58:57.677Z,2.90
2022-09-25T13:01:31.419Z,3.00
2022-09-25T13:04:10.774Z,2.80
2022-09-25T13:06:48.076Z,2.10
2022-09-25T13:09:25.184Z,2.80
2022-09-25T13:11:59.817Z,2.50
2022-09-25T13:14:34.844Z,2.60
2022-09-25T13:17:06.219Z,2.60
2022-09-25T13:19:37.590Z,2.80
2022-09-25T13:22:10.542Z,2.30
2022-09-25T13:24:48.561Z,2.20
2022-09-25T13:27:22.680Z,2.60
2022-09-25T13:29:59.057Z,2.80
2022-09-25T13:32:35.079Z,2.60
2022-09-25T13:35:08.463Z,2.80
2022-09-25T13:37:40.244Z,2.60
2022-09-25T13:40:37.523Z,2.90
2022-09-25T13:43:22.654Z,2.90
2022-09-25T13:46:34.137Z,3.10
2022-09-25T13:49:36.375Z,2.40
2022-09-25T13:54:46.363Z,2.90
2022-09-25T13:57:19.848Z,3.40
2022-09-25T13:59:51.320Z,2.60
2022-09-25T14:02:46.332Z,2.60
2022-09-25T14:05:19.604Z,2.40
2022-09-25T14:07:55.258Z,2.90
2022-09-25T14:10:27.024Z,2.80
2022-09-25T14:15:32.527Z,2.80
2022-09-25T14:18:06.101Z,2.70
2022-09-25T14:20:41.770Z,3.00
2022-09-25T14:23:18.131Z,2.50
2022-09-25T14:25:56.204Z,3.00
2022-09-25T14:28:31.759Z,2.50
2022-09-25T14:31:27.704Z,2.80
2022-09-25T14:34:26.229Z,2.80
2022-09-25T14:37:03.958Z,3.10
2022-09-25T14:39:42.459Z,3.20
2022-09-25T14:42:25.842Z,3.90
2022-09-25T14:45:06.171Z,3.60
2022-09-25T14:47:38.671Z,3.70
2022-09-25T14:50:17.827Z,4.10
2022-09-25T14:52:52.901Z,4.30
2022-09-25T14:55:25.515Z,4.00
2022-09-25T14:57:58.405Z,3.60
2022-09-25T15:00:30.368Z,3.40
2022-09-25T15:03:02.793Z,3.10
2022-09-25T15:05:35.906Z,3.40
2022-09-25T15:08:23.481Z,3.10
2022-09-25T15:11:05.780Z,3.30
2022-09-25T15:13:37.608Z,3.10
2022-09-25T15:16:30.478Z,2.90
2022-09-25T15:19:03.561Z,3.70
2022-09-25T15:21:37.212Z,3.40
2022-09-25T15:24:14.536Z,3.20
2022-09-25T15:26:50.250Z,3.50
2022-09-25T15:29:23.999Z,3.70
2022-09-25T15:31:56.162Z,3.80
2022-09-25T15:37:15.332Z,4.90
2022-09-25T15:39:46.950Z,4.40
2022-09-25T15:42:18.461Z,4.10
2022-09-25T15:44:49.955Z,4.20
2022-09-25T15:47:50.411Z,3.70
2022-09-25T15:50:25.169Z,4.50
2022-09-25T15:52:57.495Z,4.60
2022-09-25T15:55:28.983Z,4.50
2022-09-25T15:58:08.569Z,5.00
2022-09-25T16:00:57.667Z,5.60
2022-09-25T16:03:48.549Z,6.70
2022-09-25T16:06:20.162Z,7.60
2022-09-25T16:08:52.012Z,6.70
2022-09-25T16:11:24.860Z,6.70
2022-09-25T16:14:13.534Z,8.60
2022-09-25T16:16:51.174Z,4.60
2022-09-25T16:19:34.843Z,4.80
2022-09-25T16:22:22.100Z,4.20
2022-09-25T16:24:54.238Z,3.80
2022-09-25T16:27:29.115Z,4.20
2022-09-25T16:30:03.923Z,4.70
2022-09-25T16:32:36.276Z,4.70
2022-09-25T16:35:08.702Z,5.20
2022-09-25T16:37:40.100Z,4.80
2022-09-25T16:40:20.899Z,5.50
2022-09-25T16:42:52.604Z,6.20
2022-09-25T16:45:28.049Z,7.20
2022-09-25T16:47:59.885Z,9.10
2022-09-25T16:50:33.684Z,9.10
2022-09-25T16:53:06.134Z,6.30
2022-09-25T16:55:47.600Z,6.50
2022-09-25T16:58:19.401Z,6.60
2022-09-25T17:00:50.925Z,6.30
2022-09-25T17:03:22.285Z,6.30
2022-09-25T17:05:54.288Z,6.00
2022-09-25T17:08:25.834Z,5.20
2022-09-25T17:13:31.164Z,5.20
2022-09-25T17:16:04.106Z,5.60
2022-09-25T17:18:36.374Z,6.20
2022-09-25T17:21:12.309Z,5.30
2022-09-25T17:23:44.253Z,6.10
2022-09-25T17:26:19.487Z,6.00
2022-09-25T17:28:52.094Z,5.90
2022-09-25T17:31:24.896Z,6.80
2022-09-25T17:33:56.725Z,6.00
2022-09-25T17:36:28.838Z,5.40
2022-09-25T17:39:00.133Z,6.60
2022-09-25T17:41:33.626Z,8.50
2022-09-25T17:44:05.492Z,7.90
2022-09-25T17:46:37.105Z,6.50
2022-09-25T17:49:09.550Z,6.80
2022-09-25T17:51:41.495Z,6.80
2022-09-25T17:54:13.879Z,6.10
2022-09-25T17:56:46.628Z,6.20
2022-09-25T17:59:18.800Z,5.50
2022-09-25T18:01:51.379Z,5.10
2022-09-25T18:04:25.422Z,6.50
2022-09-25T18:06:57.202Z,6.70
2022-09-25T18:09:29.091Z,6.20
2022-09-25T18:12:01.437Z,6.70
2022-09-25T18:14:35.524Z,6.20
2022-09-25T18:17:08.286Z,6.70
2022-09-25T18:19:57.663Z,6.40
2022-09-25T18:22:29.638Z,7.40
2022-09-25T18:25:01.707Z,7.40
2022-09-25T18:27:34.893Z,6.10
2022-09-25T18:30:08.415Z,6.40
2022-09-25T18:32:40.680Z,6.30
2022-09-25T18:35:14.460Z,7.00
2022-09-25T18:37:46.078Z,9.10
2022-09-25T18:42:48.606Z,5.90
2022-09-25T18:45:20.395Z,6.60
2022-09-25T18:50:21.859Z,6.70
2022-09-25T18:52:53.278Z,5.70
2022-09-25T18:55:24.733Z,5.80
2022-09-25T18:57:57.533Z,6.50
2022-09-25T19:00:29.216Z,6.60
2022-09-25T19:05:31.763Z,6.20
2022-09-25T19:13:07.327Z,5.90
2022-09-25T19:15:40.443Z,6.30
2022-09-25T19:18:13.119Z,7.10
2022-09-25T19:20:54.610Z,6.90
2022-09-25T19:23:26.847Z,6.70
2022-09-25T19:25:59.684Z,7.20
2022-09-25T19:28:31.737Z,7.30
2022-09-25T19:31:08.030Z,7.70
2022-09-25T19:33:40.419Z,7.20
2022-09-25T19:36:16.689Z,6.50
2022-09-25T19:38:48.817Z,6.40
2022-09-25T19:41:24.073Z,7.50
2022-09-25T19:43:56.965Z,7.20
2022-09-25T19:46:28.712Z,7.00
2022-09-25T19:49:01.832Z,7.10
2022-09-25T19:51:33.654Z,6.70
2022-09-25T19:54:05.949Z,7.00
2022-09-25T19:56:41.091Z,7.50
2022-09-25T19:59:15.650Z,8.00
2022-09-25T20:01:47.520Z,7.20
2022-09-25T20:04:19.358Z,7.90
2022-09-25T20:09:20.577Z,7.50
2022-09-25T20:11:52.027Z,8.00
2022-09-25T20:14:25.845Z,8.20
2022-09-25T20:16:57.690Z,8.00
2022-09-25T20:19:29.041Z,8.60
2022-09-25T20:22:00.403Z,6.80
2022-09-25T20:24:31.782Z,7.90
2022-09-25T20:27:03.177Z,7.70
2022-09-25T20:29:35.221Z,7.80
2022-09-25T20:32:06.707Z,8.00
2022-09-25T20:34:38.134Z,8.40
2022-09-25T20:37:10.845Z,6.90
2022-09-25T20:39:42.353Z,7.90
2022-09-25T20:42:14.264Z,6.80
2022-09-25T20:44:45.817Z,6.90
2022-09-25T20:47:18.679Z,6.70
2022-09-25T20:49:50.410Z,7.40
2022-09-25T20:52:21.914Z,7.10
2022-09-25T20:54:53.336Z,8.10
2022-09-25T20:57:24.886Z,7.00
2022-09-25T20:59:57.060Z,6.80
2022-09-25T21:02:29.016Z,8.80
2022-09-25T21:05:00.570Z,6.90
2022-09-25T21:07:31.973Z,8.00
2022-09-25T21:10:03.885Z,7.60
2022-09-25T21:12:35.342Z,7.00
2022-09-25T21:15:07.950Z,7.00
2022-09-25T21:17:39.282Z,7.50
2022-09-25T21:20:12.058Z,7.30
2022-09-25T21:22:43.464Z,6.70
2022-09-25T21:25:14.997Z,6.30
2022-09-25T21:27:46.660Z,7.10
2022-09-25T21:30:18.439Z,7.10
2022-09-25T21:35:20.284Z,6.80
2022-09-25T21:37:51.820Z,6.00
2022-09-25T21:40:23.426Z,6.40
2022-09-25T21:42:54.814Z,6.40
2022-09-25T21:45:26.325Z,5.60
2022-09-25T21:47:57.791Z,6.20
2022-09-25T21:50:29.240Z,6.10
2022-09-25T21:53:00.863Z,5.10
2022-09-25T21:55:32.483Z,5.90
2022-09-25T22:00:34.123Z,6.10
2022-09-25T22:03:07.741Z,5.20
2022-09-25T22:05:42.281Z,5.90
2022-09-25T22:08:13.616Z,5.40
2022-09-25T22:10:45.548Z,5.10
2022-09-25T22:13:16.972Z,5.10
2022-09-25T22:15:48.473Z,5.30
2022-09-25T22:18:20.246Z,5.30
2022-09-25T22:20:54.523Z,5.20
2022-09-25T22:23:25.973Z,5.50
2022-09-25T22:25:57.422Z,4.70
2022-09-25T22:28:28.926Z,5.00
2022-09-25T22:31:00.492Z,5.70
2022-09-25T22:33:32.536Z,5.30
2022-09-25T22:36:04.539Z,6.50
2022-09-25T22:38:35.922Z,5.00
2022-09-25T22:41:08.527Z,5.50
2022-09-25T22:43:40.051Z,5.90
2022-09-25T22:46:12.515Z,6.20
2022-09-25T22:48:43.984Z,6.50
2022-09-25T22:51:16.214Z,5.60
2022-09-25T22:53:47.635Z,6.80
2022-09-25T22:56:20.201Z,5.30
2022-09-25T22:58:54.196Z,5.60
2022-09-25T23:01:29.366Z,4.60
2022-09-25T23:04:01.812Z,5.40
2022-09-25T23:06:34.032Z,5.20
2022-09-25T23:09:09.715Z,5.00
2022-09-25T23:11:41.147Z,4.60
2022-09-25T23:14:17.236Z,4.70
2022-09-25T23:16:49.741Z,5.10
2022-09-25T23:19:21.315Z,4.90
2022-09-25T23:21:53.613Z,5.30
2022-09-25T23:24:25.116Z,5.00
2022-09-25T23:26:56.506Z,6.00
2022-09-25T23:29:27.797Z,3.90
2022-09-25T23:31:59.315Z,4.60
2022-09-25T23:34:30.877Z,4.60
2022-09-25T23:37:02.328Z,4.50
2022-09-25T23:39:34.000Z,3.90
2022-09-25T23:42:05.479Z,4.70
2022-09-25T23:44:36.854Z,4.70
2022-09-25T23:47:08.566Z,5.30
2022-09-25T23:52:09.848Z,4.50
2022-09-25T23:54:41.269Z,5.10
2022-09-25T23:57:13.537Z,3.70
2022-09-25T23:59:45.316Z,4.20
